Etusivu
METAR-TAF:

METAR-TAF

Lentoasemat :

Uşak, Turkki

Leveyspiiri: 38-40N, Pituuspiiri: 029-25E, korkeus merenpinnasta: 919 m

Tämänhetkinen sää

Tämä raportti tehtiin 3 tuntia ja 29 minuuttia sitten, kello 13.50 UTC
Tuuli 4 kn idästä, vaihdellen koillisen ja etelän välillä
Lämpötila 16°C
Kosteus 55%
Ilmanpaine 1017 hPa
Näkyvyys 10 km tai enemmän
Hajonneita pilviä 4000 ft:n korkeudessa
Hajonneita pilviä 10000 ft:n korkeudessa

METAR: LTBO 291350Z 10004KT 040V190 9999 BKN040 BKN100 16/07 Q1017 RESHRA

Aika: 20:19 (17:19 UTC)

Sääennuste

Tämä raportti tehtiin 3 tuntia ja 39 minuuttia sitten, kello 13.40 UTC
Ennuste voimassa 29. päivästä klo 15 UTC - 29. päivään klo 24 UTC
Tuuli 12 kn lännestä
Näkyvyys 10 km tai enemmän
Hajanaisia pilviä 3500 ft:n korkeudessa
Hajonneita pilviä 10000 ft:n korkeudessa
Tulossa
29. päivästä klo 18 UTC - 29. päivään klo 21 UTC
Tuuli 2 kn eri suunnista

TAF: LTBO 291340Z 2915/2924 27012KT 9999 SCT035 BKN100 BECMG 2918/2921 VRB02KT

Säähavainnot ja -ennusteet yli 4000 lentoasemalta (METAR- ja TAF-raportit).

Käytössä olevat sääasemat on merkitty karttaan keltaisilla ja punaisilla pisteillä.

Aseta hiiri pisteen päälle nähdäksesi sääaseman nimen.

Klikkaa sitten nähdäksesi säähavainnot ja -ennusteet.

Kartan vaihtaminen: klikkaa mustalla rastilla varustettuja vihreitä pisteitä, niin voit zoomata sisään; viivalla varustettua vihreää pistettä, niin voit zoomata ulos tai vihreitä nuolia, niin pääset viereisille kartoille.


METAR-TAF: